createdAt,value
2022-12-13T00:05:02.262Z,0.00
2022-12-13T00:10:34.095Z,1.00
2022-12-13T00:16:05.759Z,0.00
2022-12-13T00:21:36.868Z,0.00
2022-12-13T00:27:08.204Z,0.00
2022-12-13T00:32:39.457Z,0.00
2022-12-13T00:38:11.015Z,1.00
2022-12-13T00:43:42.994Z,0.00
2022-12-13T00:49:14.373Z,0.00
2022-12-13T00:54:45.787Z,0.00
2022-12-13T01:00:17.233Z,0.00
2022-12-13T01:11:18.879Z,0.00
2022-12-13T01:16:50.955Z,0.00
2022-12-13T01:22:22.697Z,1.00
2022-12-13T01:27:54.420Z,0.00
2022-12-13T01:33:26.066Z,1.00
2022-12-13T01:38:59.089Z,0.00
2022-12-13T01:44:30.127Z,0.00
2022-12-13T01:50:02.122Z,0.00
2022-12-13T01:55:33.823Z,0.00
2022-12-13T02:01:05.608Z,0.00
2022-12-13T02:06:37.549Z,1.00
2022-12-13T02:12:09.833Z,0.00
2022-12-13T02:17:45.302Z,0.00
2022-12-13T02:28:43.915Z,1.00
2022-12-13T02:34:16.219Z,0.00
2022-12-13T02:39:48.170Z,1.00
2022-12-13T02:45:21.095Z,0.00
2022-12-13T02:50:57.726Z,0.00
2022-12-13T02:56:29.644Z,0.00
2022-12-13T03:02:10.184Z,0.00
2022-12-13T03:07:33.291Z,0.00
2022-12-13T03:13:05.175Z,0.00
2022-12-13T03:18:36.818Z,0.00
2022-12-13T03:24:08.463Z,1.00
2022-12-13T03:29:40.179Z,0.00
2022-12-13T03:35:22.289Z,0.00
2022-12-13T03:40:43.936Z,0.00
2022-12-13T03:46:15.665Z,0.00
2022-12-13T03:51:47.309Z,0.00
2022-12-13T03:57:19.296Z,1.00
2022-12-13T04:02:57.001Z,0.00
2022-12-13T04:14:00.307Z,0.00
2022-12-13T04:19:32.099Z,0.00
2022-12-13T04:25:03.983Z,0.00
2022-12-13T04:30:35.728Z,0.00
2022-12-13T04:36:07.447Z,0.00
2022-12-13T04:41:39.332Z,0.00
2022-12-13T04:47:11.140Z,0.00
2022-12-13T04:52:42.818Z,0.00
2022-12-13T04:58:18.393Z,0.00
2022-12-13T05:03:46.428Z,0.00
2022-12-13T05:09:18.258Z,0.00
2022-12-13T05:20:19.798Z,0.00
2022-12-13T05:25:52.062Z,0.00
2022-12-13T05:31:24.505Z,0.00
2022-12-13T05:36:56.587Z,0.00
2022-12-13T05:42:28.407Z,0.00
2022-12-13T05:48:00.580Z,0.00
2022-12-13T05:53:32.545Z,0.00
2022-12-13T05:59:04.651Z,0.00
2022-12-13T06:04:36.352Z,1.00
2022-12-13T06:10:10.069Z,2.00
2022-12-13T06:15:44.649Z,4.00
2022-12-13T06:21:12.201Z,11.00
2022-12-13T06:26:45.124Z,29.00
2022-12-13T06:32:16.494Z,77.00
2022-12-13T06:37:48.441Z,157.00
2022-12-13T06:43:19.930Z,262.00
2022-12-13T06:48:51.766Z,387.00
2022-12-13T06:54:23.657Z,510.00
2022-12-13T06:59:55.684Z,664.00
2022-12-13T07:05:27.555Z,727.00
2022-12-13T07:10:59.743Z,905.00
2022-12-13T07:16:32.089Z,975.00
2022-12-13T07:22:04.071Z,1356.00
2022-12-13T07:27:36.333Z,1539.00
2022-12-13T07:33:08.611Z,1925.00
2022-12-13T07:38:40.978Z,1729.00
2022-12-13T07:44:13.023Z,2533.00
2022-12-13T07:49:45.166Z,3391.00
2022-12-13T07:55:17.274Z,4438.00
2022-12-13T08:00:49.404Z,6745.00
2022-12-13T08:06:21.296Z,7516.00
2022-12-13T08:11:53.237Z,9443.00
2022-12-13T08:17:28.423Z,9289.00
2022-12-13T08:23:02.995Z,10856.00
2022-12-13T08:27:49.347Z,11703.00
2022-12-13T08:33:22.093Z,9553.00
2022-12-13T08:38:53.815Z,8352.00
2022-12-13T08:44:25.918Z,8707.00
2022-12-13T08:50:03.058Z,7958.00
2022-12-13T08:55:32.373Z,7727.00
2022-12-13T09:01:01.505Z,9306.00
2022-12-13T09:12:03.352Z,9357.00
2022-12-13T09:17:37.000Z,8296.00
2022-12-13T09:23:08.074Z,9915.00
2022-12-13T09:28:40.381Z,8777.00
2022-12-13T09:34:12.377Z,8162.00
2022-12-13T09:39:44.147Z,7537.00
2022-12-13T09:45:22.463Z,7964.00
2022-12-13T09:50:58.269Z,7839.00
2022-12-13T09:56:19.701Z,6902.00
2022-12-13T10:01:51.928Z,6891.00
2022-12-13T10:07:23.515Z,7399.00
2022-12-13T10:12:55.275Z,7420.00
2022-12-13T10:18:27.416Z,7466.00
2022-12-13T10:24:24.113Z,7840.00
2022-12-13T10:29:31.251Z,6860.00
2022-12-13T10:35:02.839Z,7927.00
2022-12-13T10:48:24.639Z,7656.00
2022-12-13T10:53:56.603Z,7400.00
2022-12-13T10:59:27.718Z,7361.00
2022-12-13T11:04:59.676Z,6712.00
2022-12-13T11:10:31.330Z,6860.00
2022-12-13T11:16:03.185Z,6947.00
2022-12-13T11:21:35.031Z,7209.00
2022-12-13T11:27:06.803Z,7614.00
2022-12-13T11:32:38.169Z,7266.00
2022-12-13T11:38:10.071Z,6924.00
2022-12-13T11:46:03.109Z,7623.00
2022-12-13T11:51:34.692Z,7651.00
2022-12-13T11:57:06.345Z,7792.00
2022-12-13T12:02:38.393Z,7571.00
2022-12-13T12:19:11.780Z,8741.00
2022-12-13T12:24:43.102Z,8966.00
2022-12-13T12:30:23.713Z,8973.00
2022-12-13T12:35:46.807Z,8244.00
2022-12-13T12:41:18.159Z,8013.00
2022-12-13T12:47:18.956Z,7380.00
2022-12-13T12:52:22.085Z,7426.00
2022-12-13T12:57:53.929Z,7323.00
2022-12-13T13:03:26.258Z,7462.00
2022-12-13T13:14:27.051Z,7133.00
2022-12-13T13:20:09.592Z,6631.00
2022-12-13T13:25:31.016Z,6191.00
2022-12-13T13:36:32.352Z,6578.00
2022-12-13T13:42:04.342Z,6495.00
2022-12-13T13:47:36.073Z,6184.00
2022-12-13T13:53:07.743Z,5671.00
2022-12-13T13:58:39.284Z,5280.00
2022-12-13T14:04:11.129Z,5205.00
2022-12-13T14:09:43.032Z,5045.00
2022-12-13T14:15:14.704Z,4471.00
2022-12-13T14:20:48.006Z,4098.00
2022-12-13T14:26:19.652Z,3805.00
2022-12-13T14:31:51.451Z,3213.00
2022-12-13T14:37:23.189Z,2758.00
2022-12-13T14:42:54.749Z,2267.00
2022-12-13T14:48:28.593Z,1699.00
2022-12-13T14:53:58.007Z,1301.00
2022-12-13T14:59:29.893Z,1068.00
2022-12-13T15:05:01.603Z,744.00
2022-12-13T15:10:33.406Z,456.00
2022-12-13T15:16:10.347Z,307.00
2022-12-13T15:21:37.102Z,215.00
2022-12-13T15:27:09.583Z,147.00
2022-12-13T15:32:41.341Z,92.00
2022-12-13T15:38:13.149Z,52.00
2022-12-13T15:43:45.239Z,19.00
2022-12-13T15:54:46.620Z,2.00
2022-12-13T16:00:18.604Z,0.00
2022-12-13T16:05:50.712Z,1.00
2022-12-13T16:11:22.393Z,0.00
2022-12-13T16:16:55.309Z,1.00
2022-12-13T16:22:28.158Z,0.00
2022-12-13T16:28:00.254Z,0.00
2022-12-13T16:33:32.791Z,0.00
2022-12-13T16:39:03.806Z,1.00
2022-12-13T16:44:36.030Z,1.00
2022-12-13T16:50:07.429Z,1.00
2022-12-13T16:55:39.597Z,0.00
2022-12-13T17:01:11.345Z,0.00
2022-12-13T17:06:43.185Z,1.00
2022-12-13T17:12:15.221Z,1.00
2022-12-13T17:17:47.278Z,0.00
2022-12-13T17:23:19.179Z,1.00
2022-12-13T17:28:51.249Z,0.00
2022-12-13T17:34:23.070Z,0.00
2022-12-13T17:39:54.846Z,0.00
2022-12-13T17:45:26.433Z,0.00
2022-12-13T17:50:58.519Z,0.00
2022-12-13T17:56:30.330Z,0.00
2022-12-13T18:02:02.175Z,0.00
2022-12-13T18:07:33.910Z,3.00
2022-12-13T18:13:05.483Z,3.00
2022-12-13T18:18:37.597Z,3.00
2022-12-13T18:24:10.083Z,4.00
2022-12-13T18:29:48.003Z,0.00
2022-12-13T18:35:19.938Z,1.00
2022-12-13T18:40:52.115Z,1.00
2022-12-13T18:46:23.913Z,0.00
2022-12-13T18:51:55.821Z,0.00
2022-12-13T18:57:27.280Z,1.00
2022-12-13T19:02:59.337Z,0.00
2022-12-13T19:08:31.207Z,0.00
2022-12-13T19:14:03.368Z,1.00
2022-12-13T19:19:35.660Z,0.00
2022-12-13T19:25:07.394Z,0.00
2022-12-13T19:30:39.275Z,0.00
2022-12-13T19:36:10.696Z,1.00
2022-12-13T19:41:42.402Z,0.00
2022-12-13T19:47:13.691Z,1.00
2022-12-13T19:52:45.475Z,0.00
2022-12-13T19:58:17.397Z,1.00
2022-12-13T20:03:49.292Z,1.00
2022-12-13T20:09:21.296Z,1.00
2022-12-13T20:14:53.040Z,0.00
2022-12-13T20:20:31.488Z,0.00
2022-12-13T20:25:56.561Z,1.00
2022-12-13T20:31:28.522Z,0.00
2022-12-13T20:39:21.532Z,0.00
2022-12-13T20:44:53.378Z,1.00
2022-12-13T20:50:25.475Z,1.00
2022-12-13T20:55:56.791Z,0.00
2022-12-13T21:01:28.608Z,0.00
2022-12-13T21:07:00.495Z,1.00
2022-12-13T21:12:31.934Z,1.00
2022-12-13T21:18:03.774Z,1.00
2022-12-13T21:23:35.800Z,0.00
2022-12-13T21:29:07.238Z,0.00
2022-12-13T21:34:39.210Z,1.00
2022-12-13T21:40:11.395Z,1.00
2022-12-13T21:45:43.541Z,0.00
2022-12-13T21:51:15.245Z,1.00
2022-12-13T21:56:46.866Z,0.00
2022-12-13T22:02:19.827Z,0.00
2022-12-13T22:07:51.520Z,0.00
2022-12-13T22:13:23.195Z,0.00
2022-12-13T22:18:55.169Z,0.00
2022-12-13T22:24:26.663Z,0.00
2022-12-13T22:29:58.630Z,0.00
2022-12-13T22:46:29.297Z,0.00
2022-12-13T22:52:00.960Z,0.00
2022-12-13T22:57:33.172Z,0.00
2022-12-13T23:03:05.309Z,0.00
2022-12-13T23:14:06.274Z,0.00
2022-12-13T23:19:50.902Z,0.00
2022-12-13T23:25:10.222Z,0.00
2022-12-13T23:30:42.291Z,0.00
2022-12-13T23:36:14.399Z,0.00
2022-12-13T23:41:45.931Z,0.00
2022-12-13T23:52:47.297Z,1.00
2022-12-13T23:58:18.951Z,0.00
